sensor_id;sensor_type;location;lat;lon;timestamp;P1;durP1;ratioP1;P2;durP2;ratioP2
29430;SDS011;16404;49.902;10.074;2024-03-17T00:02:32;11.80;;;6.70;;
29430;SDS011;16404;49.902;10.074;2024-03-17T00:05:17;9.55;;;5.82;;
29430;SDS011;16404;49.902;10.074;2024-03-17T00:08:03;10.80;;;6.05;;
29430;SDS011;16404;49.902;10.074;2024-03-17T00:10:52;10.60;;;6.15;;
29430;SDS011;16404;49.902;10.074;2024-03-17T00:13:39;12.30;;;6.60;;
29430;SDS011;16404;49.902;10.074;2024-03-17T00:16:24;11.57;;;5.93;;
29430;SDS011;16404;49.902;10.074;2024-03-17T00:19:09;10.27;;;6.38;;
29430;SDS011;16404;49.902;10.074;2024-03-17T00:24:38;9.25;;;6.03;;
29430;SDS011;16404;49.902;10.074;2024-03-17T00:27:23;12.52;;;8.45;;
29430;SDS011;16404;49.902;10.074;2024-03-17T00:30:07;13.98;;;7.28;;
29430;SDS011;16404;49.902;10.074;2024-03-17T00:32:59;16.05;;;7.70;;
29430;SDS011;16404;49.902;10.074;2024-03-17T00:35:44;8.85;;;6.00;;
29430;SDS011;16404;49.902;10.074;2024-03-17T00:38:28;9.65;;;6.05;;
29430;SDS011;16404;49.902;10.074;2024-03-17T00:41:13;9.38;;;5.50;;
29430;SDS011;16404;49.902;10.074;2024-03-17T00:43:57;9.00;;;5.45;;
29430;SDS011;16404;49.902;10.074;2024-03-17T00:46:44;8.77;;;5.50;;
29430;SDS011;16404;49.902;10.074;2024-03-17T00:52:13;8.95;;;5.38;;
29430;SDS011;16404;49.902;10.074;2024-03-17T00:54:58;11.07;;;6.07;;
29430;SDS011;16404;49.902;10.074;2024-03-17T00:57:43;8.98;;;6.20;;
29430;SDS011;16404;49.902;10.074;2024-03-17T01:00:28;7.43;;;5.90;;
29430;SDS011;16404;49.902;10.074;2024-03-17T01:03:12;9.23;;;5.57;;
29430;SDS011;16404;49.902;10.074;2024-03-17T01:08:41;8.23;;;5.78;;
29430;SDS011;16404;49.902;10.074;2024-03-17T01:11:27;9.00;;;6.00;;
29430;SDS011;16404;49.902;10.074;2024-03-17T01:14:12;9.95;;;6.30;;
29430;SDS011;16404;49.902;10.074;2024-03-17T01:16:57;11.02;;;6.00;;
29430;SDS011;16404;49.902;10.074;2024-03-17T01:19:42;9.48;;;6.95;;
29430;SDS011;16404;49.902;10.074;2024-03-17T01:22:27;9.75;;;5.97;;
29430;SDS011;16404;49.902;10.074;2024-03-17T01:25:12;11.88;;;6.30;;
29430;SDS011;16404;49.902;10.074;2024-03-17T01:27:57;7.70;;;5.60;;
29430;SDS011;16404;49.902;10.074;2024-03-17T01:30:41;8.75;;;6.22;;
29430;SDS011;16404;49.902;10.074;2024-03-17T01:33:26;9.18;;;5.88;;
29430;SDS011;16404;49.902;10.074;2024-03-17T01:36:10;8.50;;;5.95;;
29430;SDS011;16404;49.902;10.074;2024-03-17T01:38:55;9.15;;;5.63;;
29430;SDS011;16404;49.902;10.074;2024-03-17T01:41:40;8.60;;;5.80;;
29430;SDS011;16404;49.902;10.074;2024-03-17T01:44:28;7.60;;;5.97;;
29430;SDS011;16404;49.902;10.074;2024-03-17T01:47:14;12.07;;;6.20;;
29430;SDS011;16404;49.902;10.074;2024-03-17T01:49:59;10.68;;;5.95;;
29430;SDS011;16404;49.902;10.074;2024-03-17T01:52:44;10.63;;;6.30;;
29430;SDS011;16404;49.902;10.074;2024-03-17T01:55:31;9.98;;;6.00;;
29430;SDS011;16404;49.902;10.074;2024-03-17T01:58:17;9.27;;;6.20;;
29430;SDS011;16404;49.902;10.074;2024-03-17T02:01:04;10.38;;;6.18;;
29430;SDS011;16404;49.902;10.074;2024-03-17T02:03:49;8.80;;;5.90;;
29430;SDS011;16404;49.902;10.074;2024-03-17T02:06:33;10.40;;;6.85;;
29430;SDS011;16404;49.902;10.074;2024-03-17T02:09:18;11.15;;;6.28;;
29430;SDS011;16404;49.902;10.074;2024-03-17T02:12:03;10.32;;;6.72;;
29430;SDS011;16404;49.902;10.074;2024-03-17T02:14:47;11.50;;;6.53;;
29430;SDS011;16404;49.902;10.074;2024-03-17T02:17:32;9.95;;;7.07;;
29430;SDS011;16404;49.902;10.074;2024-03-17T02:23:01;12.48;;;6.72;;
29430;SDS011;16404;49.902;10.074;2024-03-17T02:25:46;9.23;;;5.68;;
29430;SDS011;16404;49.902;10.074;2024-03-17T02:28:41;11.07;;;6.82;;
29430;SDS011;16404;49.902;10.074;2024-03-17T02:31:26;13.50;;;6.60;;
29430;SDS011;16404;49.902;10.074;2024-03-17T02:34:10;8.55;;;6.40;;
29430;SDS011;16404;49.902;10.074;2024-03-17T02:36:55;9.00;;;6.25;;
29430;SDS011;16404;49.902;10.074;2024-03-17T02:39:40;10.98;;;6.22;;
29430;SDS011;16404;49.902;10.074;2024-03-17T02:42:25;9.20;;;6.22;;
29430;SDS011;16404;49.902;10.074;2024-03-17T02:45:09;9.15;;;6.45;;
29430;SDS011;16404;49.902;10.074;2024-03-17T02:47:55;10.95;;;6.47;;
29430;SDS011;16404;49.902;10.074;2024-03-17T02:50:40;9.13;;;6.50;;
29430;SDS011;16404;49.902;10.074;2024-03-17T02:53:24;9.75;;;6.93;;
29430;SDS011;16404;49.902;10.074;2024-03-17T02:56:09;9.80;;;6.38;;
29430;SDS011;16404;49.902;10.074;2024-03-17T02:58:53;10.48;;;6.60;;
29430;SDS011;16404;49.902;10.074;2024-03-17T03:01:38;11.27;;;7.07;;
29430;SDS011;16404;49.902;10.074;2024-03-17T03:04:23;10.60;;;6.55;;
29430;SDS011;16404;49.902;10.074;2024-03-17T03:07:08;10.15;;;6.75;;
29430;SDS011;16404;49.902;10.074;2024-03-17T03:09:53;11.98;;;7.50;;
29430;SDS011;16404;49.902;10.074;2024-03-17T03:12:37;8.70;;;6.30;;
29430;SDS011;16404;49.902;10.074;2024-03-17T03:15:22;12.27;;;6.50;;
29430;SDS011;16404;49.902;10.074;2024-03-17T03:18:07;10.50;;;6.10;;
29430;SDS011;16404;49.902;10.074;2024-03-17T03:20:51;9.95;;;5.97;;
29430;SDS011;16404;49.902;10.074;2024-03-17T03:26:20;10.77;;;6.55;;
29430;SDS011;16404;49.902;10.074;2024-03-17T03:29:05;8.30;;;6.22;;
29430;SDS011;16404;49.902;10.074;2024-03-17T03:31:49;10.15;;;5.90;;
29430;SDS011;16404;49.902;10.074;2024-03-17T03:34:34;7.95;;;5.43;;
29430;SDS011;16404;49.902;10.074;2024-03-17T03:37:18;9.00;;;5.57;;
29430;SDS011;16404;49.902;10.074;2024-03-17T03:40:03;9.95;;;6.05;;
29430;SDS011;16404;49.902;10.074;2024-03-17T03:42:59;9.48;;;5.80;;
29430;SDS011;16404;49.902;10.074;2024-03-17T03:45:45;10.90;;;6.68;;
29430;SDS011;16404;49.902;10.074;2024-03-17T03:51:13;11.48;;;7.20;;
29430;SDS011;16404;49.902;10.074;2024-03-17T03:53:58;10.40;;;6.63;;
29430;SDS011;16404;49.902;10.074;2024-03-17T03:56:43;12.50;;;7.40;;
29430;SDS011;16404;49.902;10.074;2024-03-17T04:02:12;10.10;;;6.95;;
29430;SDS011;16404;49.902;10.074;2024-03-17T04:04:58;11.63;;;7.10;;
29430;SDS011;16404;49.902;10.074;2024-03-17T04:07:42;12.30;;;7.90;;
29430;SDS011;16404;49.902;10.074;2024-03-17T04:10:29;10.63;;;6.82;;
29430;SDS011;16404;49.902;10.074;2024-03-17T04:13:14;11.38;;;6.97;;
29430;SDS011;16404;49.902;10.074;2024-03-17T04:15:59;9.73;;;6.82;;
29430;SDS011;16404;49.902;10.074;2024-03-17T04:18:45;11.80;;;7.47;;
29430;SDS011;16404;49.902;10.074;2024-03-17T04:21:29;11.75;;;6.30;;
29430;SDS011;16404;49.902;10.074;2024-03-17T04:24:14;13.38;;;7.95;;
29430;SDS011;16404;49.902;10.074;2024-03-17T04:26:58;12.10;;;8.25;;
29430;SDS011;16404;49.902;10.074;2024-03-17T04:29:43;14.82;;;8.30;;
29430;SDS011;16404;49.902;10.074;2024-03-17T04:32:31;12.05;;;7.70;;
29430;SDS011;16404;49.902;10.074;2024-03-17T04:35:17;12.32;;;7.68;;
29430;SDS011;16404;49.902;10.074;2024-03-17T04:38:01;17.00;;;8.32;;
29430;SDS011;16404;49.902;10.074;2024-03-17T04:40:46;15.63;;;9.18;;
29430;SDS011;16404;49.902;10.074;2024-03-17T04:43:32;13.70;;;7.95;;
29430;SDS011;16404;49.902;10.074;2024-03-17T04:46:16;16.65;;;9.30;;
29430;SDS011;16404;49.902;10.074;2024-03-17T04:49:01;14.30;;;8.55;;
29430;SDS011;16404;49.902;10.074;2024-03-17T04:51:47;15.60;;;8.70;;
29430;SDS011;16404;49.902;10.074;2024-03-17T04:54:31;15.27;;;8.77;;
29430;SDS011;16404;49.902;10.074;2024-03-17T04:57:16;13.77;;;9.27;;
29430;SDS011;16404;49.902;10.074;2024-03-17T05:00:01;13.68;;;8.73;;
29430;SDS011;16404;49.902;10.074;2024-03-17T05:02:49;17.20;;;9.50;;
29430;SDS011;16404;49.902;10.074;2024-03-17T05:05:34;15.18;;;8.65;;
29430;SDS011;16404;49.902;10.074;2024-03-17T05:08:18;16.42;;;7.68;;
29430;SDS011;16404;49.902;10.074;2024-03-17T05:11:03;11.55;;;7.95;;
29430;SDS011;16404;49.902;10.074;2024-03-17T05:13:49;15.02;;;8.68;;
29430;SDS011;16404;49.902;10.074;2024-03-17T05:19:18;11.02;;;7.47;;
29430;SDS011;16404;49.902;10.074;2024-03-17T05:22:03;12.85;;;8.00;;
29430;SDS011;16404;49.902;10.074;2024-03-17T05:24:48;10.55;;;6.95;;
29430;SDS011;16404;49.902;10.074;2024-03-17T05:27:32;10.13;;;6.97;;
29430;SDS011;16404;49.902;10.074;2024-03-17T05:30:17;11.60;;;7.60;;
29430;SDS011;16404;49.902;10.074;2024-03-17T05:33:02;18.55;;;9.07;;
29430;SDS011;16404;49.902;10.074;2024-03-17T05:35:56;11.10;;;7.38;;
29430;SDS011;16404;49.902;10.074;2024-03-17T05:38:42;12.77;;;7.68;;
29430;SDS011;16404;49.902;10.074;2024-03-17T05:41:26;9.90;;;7.13;;
29430;SDS011;16404;49.902;10.074;2024-03-17T05:46:56;11.40;;;7.00;;
29430;SDS011;16404;49.902;10.074;2024-03-17T05:49:41;10.20;;;7.18;;
29430;SDS011;16404;49.902;10.074;2024-03-17T05:52:26;11.85;;;6.90;;
29430;SDS011;16404;49.902;10.074;2024-03-17T05:55:11;9.60;;;7.18;;
29430;SDS011;16404;49.902;10.074;2024-03-17T05:57:55;12.57;;;8.10;;
29430;SDS011;16404;49.902;10.074;2024-03-17T06:03:24;13.80;;;8.05;;
29430;SDS011;16404;49.902;10.074;2024-03-17T06:06:09;11.38;;;8.35;;
29430;SDS011;16404;49.902;10.074;2024-03-17T06:08:54;11.27;;;7.68;;
29430;SDS011;16404;49.902;10.074;2024-03-17T06:11:39;15.10;;;8.23;;
29430;SDS011;16404;49.902;10.074;2024-03-17T06:14:24;13.20;;;7.30;;
29430;SDS011;16404;49.902;10.074;2024-03-17T06:17:08;9.82;;;7.40;;
29430;SDS011;16404;49.902;10.074;2024-03-17T06:19:53;13.05;;;8.20;;
29430;SDS011;16404;49.902;10.074;2024-03-17T06:22:38;11.65;;;7.53;;
29430;SDS011;16404;49.902;10.074;2024-03-17T06:25:22;12.52;;;7.85;;
29430;SDS011;16404;49.902;10.074;2024-03-17T06:28:10;13.63;;;7.68;;
29430;SDS011;16404;49.902;10.074;2024-03-17T06:30:57;14.02;;;8.20;;
29430;SDS011;16404;49.902;10.074;2024-03-17T06:33:43;10.57;;;7.63;;
29430;SDS011;16404;49.902;10.074;2024-03-17T06:36:27;14.10;;;8.25;;
29430;SDS011;16404;49.902;10.074;2024-03-17T06:39:12;11.05;;;7.60;;
29430;SDS011;16404;49.902;10.074;2024-03-17T06:41:59;11.60;;;7.88;;
29430;SDS011;16404;49.902;10.074;2024-03-17T06:44:44;10.10;;;7.60;;
29430;SDS011;16404;49.902;10.074;2024-03-17T06:47:28;13.65;;;8.45;;
29430;SDS011;16404;49.902;10.074;2024-03-17T06:50:13;13.02;;;7.90;;
29430;SDS011;16404;49.902;10.074;2024-03-17T06:55:42;12.10;;;7.80;;
29430;SDS011;16404;49.902;10.074;2024-03-17T06:58:27;14.43;;;8.88;;
29430;SDS011;16404;49.902;10.074;2024-03-17T07:01:13;12.68;;;8.10;;
29430;SDS011;16404;49.902;10.074;2024-03-17T07:03:58;13.35;;;8.70;;
29430;SDS011;16404;49.902;10.074;2024-03-17T07:06:43;15.85;;;9.25;;
29430;SDS011;16404;49.902;10.074;2024-03-17T07:09:27;13.35;;;8.50;;
29430;SDS011;16404;49.902;10.074;2024-03-17T07:12:12;14.25;;;8.23;;
29430;SDS011;16404;49.902;10.074;2024-03-17T07:14:57;13.55;;;8.80;;
29430;SDS011;16404;49.902;10.074;2024-03-17T07:17:41;15.32;;;9.23;;
29430;SDS011;16404;49.902;10.074;2024-03-17T07:20:26;13.50;;;8.68;;
29430;SDS011;16404;49.902;10.074;2024-03-17T07:23:10;16.88;;;9.73;;
29430;SDS011;16404;49.902;10.074;2024-03-17T07:25:56;16.77;;;9.38;;
29430;SDS011;16404;49.902;10.074;2024-03-17T07:28:43;14.82;;;8.70;;
29430;SDS011;16404;49.902;10.074;2024-03-17T07:31:28;18.05;;;9.48;;
29430;SDS011;16404;49.902;10.074;2024-03-17T07:34:13;15.55;;;9.63;;
29430;SDS011;16404;49.902;10.074;2024-03-17T07:36:58;13.75;;;9.77;;
29430;SDS011;16404;49.902;10.074;2024-03-17T07:39:44;15.27;;;9.75;;
29430;SDS011;16404;49.902;10.074;2024-03-17T07:42:29;17.15;;;9.18;;
29430;SDS011;16404;49.902;10.074;2024-03-17T07:45:16;14.65;;;9.15;;
29430;SDS011;16404;49.902;10.074;2024-03-17T07:48:00;14.25;;;9.70;;
29430;SDS011;16404;49.902;10.074;2024-03-17T07:50:53;18.65;;;10.38;;
29430;SDS011;16404;49.902;10.074;2024-03-17T07:53:39;16.67;;;10.02;;
29430;SDS011;16404;49.902;10.074;2024-03-17T07:56:25;17.55;;;10.00;;
29430;SDS011;16404;49.902;10.074;2024-03-17T07:59:09;14.80;;;10.23;;
29430;SDS011;16404;49.902;10.074;2024-03-17T08:01:56;15.05;;;10.15;;
29430;SDS011;16404;49.902;10.074;2024-03-17T08:04:41;16.45;;;10.38;;
29430;SDS011;16404;49.902;10.074;2024-03-17T08:07:26;15.98;;;9.98;;
29430;SDS011;16404;49.902;10.074;2024-03-17T08:10:10;14.30;;;9.77;;
29430;SDS011;16404;49.902;10.074;2024-03-17T08:12:55;15.75;;;10.50;;
29430;SDS011;16404;49.902;10.074;2024-03-17T08:18:25;13.73;;;9.25;;
29430;SDS011;16404;49.902;10.074;2024-03-17T08:21:10;15.45;;;10.35;;
29430;SDS011;16404;49.902;10.074;2024-03-17T08:23:55;16.52;;;9.88;;
29430;SDS011;16404;49.902;10.074;2024-03-17T08:26:55;12.63;;;9.35;;
29430;SDS011;16404;49.902;10.074;2024-03-17T08:30:04;14.30;;;9.63;;
29430;SDS011;16404;49.902;10.074;2024-03-17T08:32:49;14.23;;;9.60;;
29430;SDS011;16404;49.902;10.074;2024-03-17T08:35:34;15.82;;;10.10;;
29430;SDS011;16404;49.902;10.074;2024-03-17T08:38:21;13.15;;;9.52;;
29430;SDS011;16404;49.902;10.074;2024-03-17T08:41:07;13.25;;;9.43;;
29430;SDS011;16404;49.902;10.074;2024-03-17T08:43:54;13.65;;;9.77;;
29430;SDS011;16404;49.902;10.074;2024-03-17T08:46:38;13.07;;;9.13;;
29430;SDS011;16404;49.902;10.074;2024-03-17T08:49:23;16.88;;;9.85;;
29430;SDS011;16404;49.902;10.074;2024-03-17T08:52:07;12.75;;;9.52;;
29430;SDS011;16404;49.902;10.074;2024-03-17T08:54:52;15.35;;;9.13;;
29430;SDS011;16404;49.902;10.074;2024-03-17T08:57:37;13.10;;;8.98;;
29430;SDS011;16404;49.902;10.074;2024-03-17T09:00:21;14.25;;;9.82;;
29430;SDS011;16404;49.902;10.074;2024-03-17T09:03:06;12.52;;;9.38;;
29430;SDS011;16404;49.902;10.074;2024-03-17T09:05:56;15.05;;;9.68;;
29430;SDS011;16404;49.902;10.074;2024-03-17T09:08:41;11.38;;;8.98;;
29430;SDS011;16404;49.902;10.074;2024-03-17T09:11:26;12.65;;;9.05;;
29430;SDS011;16404;49.902;10.074;2024-03-17T09:14:12;15.02;;;8.85;;
29430;SDS011;16404;49.902;10.074;2024-03-17T09:16:56;12.13;;;9.25;;
29430;SDS011;16404;49.902;10.074;2024-03-17T09:19:42;10.70;;;7.95;;
29430;SDS011;16404;49.902;10.074;2024-03-17T09:22:26;12.35;;;7.63;;
29430;SDS011;16404;49.902;10.074;2024-03-17T09:27:58;11.73;;;8.43;;
29430;SDS011;16404;49.902;10.074;2024-03-17T09:30:46;13.02;;;7.35;;
29430;SDS011;16404;49.902;10.074;2024-03-17T09:33:31;11.07;;;6.70;;
29430;SDS011;16404;49.902;10.074;2024-03-17T09:36:16;9.10;;;6.22;;
29430;SDS011;16404;49.902;10.074;2024-03-17T09:39:00;8.48;;;5.68;;
29430;SDS011;16404;49.902;10.074;2024-03-17T09:41:47;5.63;;;4.80;;
29430;SDS011;16404;49.902;10.074;2024-03-17T09:44:32;4.73;;;3.90;;
29430;SDS011;16404;49.902;10.074;2024-03-17T09:47:20;6.65;;;3.88;;
29430;SDS011;16404;49.902;10.074;2024-03-17T09:50:05;6.32;;;4.80;;
29430;SDS011;16404;49.902;10.074;2024-03-17T09:52:57;8.15;;;5.32;;
29430;SDS011;16404;49.902;10.074;2024-03-17T09:58:27;9.10;;;6.30;;
29430;SDS011;16404;49.902;10.074;2024-03-17T10:01:11;9.80;;;5.45;;
29430;SDS011;16404;49.902;10.074;2024-03-17T10:03:56;9.77;;;5.85;;
29430;SDS011;16404;49.902;10.074;2024-03-17T10:06:47;9.60;;;6.47;;
29430;SDS011;16404;49.902;10.074;2024-03-17T10:09:32;9.05;;;6.20;;
29430;SDS011;16404;49.902;10.074;2024-03-17T10:12:26;10.27;;;6.22;;
29430;SDS011;16404;49.902;10.074;2024-03-17T10:15:12;8.13;;;5.55;;
29430;SDS011;16404;49.902;10.074;2024-03-17T10:20:41;8.55;;;5.72;;
29430;SDS011;16404;49.902;10.074;2024-03-17T10:23:26;8.63;;;6.55;;
29430;SDS011;16404;49.902;10.074;2024-03-17T10:26:13;8.27;;;5.65;;
29430;SDS011;16404;49.902;10.074;2024-03-17T10:28:58;12.20;;;6.38;;
29430;SDS011;16404;49.902;10.074;2024-03-17T10:31:43;6.90;;;5.93;;
29430;SDS011;16404;49.902;10.074;2024-03-17T10:34:28;8.35;;;5.40;;
29430;SDS011;16404;49.902;10.074;2024-03-17T10:37:19;7.53;;;6.03;;
29430;SDS011;16404;49.902;10.074;2024-03-17T10:40:11;8.95;;;6.10;;
29430;SDS011;16404;49.902;10.074;2024-03-17T10:42:57;7.72;;;5.85;;
29430;SDS011;16404;49.902;10.074;2024-03-17T10:45:44;9.48;;;5.50;;
29430;SDS011;16404;49.902;10.074;2024-03-17T10:48:30;9.93;;;6.03;;
29430;SDS011;16404;49.902;10.074;2024-03-17T10:51:18;9.00;;;5.85;;
29430;SDS011;16404;49.902;10.074;2024-03-17T10:54:02;9.50;;;6.13;;
29430;SDS011;16404;49.902;10.074;2024-03-17T10:56:47;10.55;;;6.55;;
29430;SDS011;16404;49.902;10.074;2024-03-17T10:59:38;9.98;;;5.90;;
29430;SDS011;16404;49.902;10.074;2024-03-17T11:02:27;9.18;;;5.95;;
29430;SDS011;16404;49.902;10.074;2024-03-17T11:05:25;9.00;;;6.00;;
29430;SDS011;16404;49.902;10.074;2024-03-17T11:08:15;8.88;;;5.88;;
29430;SDS011;16404;49.902;10.074;2024-03-17T11:11:00;9.27;;;6.63;;
29430;SDS011;16404;49.902;10.074;2024-03-17T11:13:45;10.63;;;6.40;;
29430;SDS011;16404;49.902;10.074;2024-03-17T11:16:29;10.23;;;5.70;;
29430;SDS011;16404;49.902;10.074;2024-03-17T11:19:15;8.88;;;6.20;;
29430;SDS011;16404;49.902;10.074;2024-03-17T11:22:40;9.43;;;6.13;;
29430;SDS011;16404;49.902;10.074;2024-03-17T11:28:14;7.95;;;6.57;;
29430;SDS011;16404;49.902;10.074;2024-03-17T11:31:31;7.18;;;6.18;;
29430;SDS011;16404;49.902;10.074;2024-03-17T11:34:26;9.80;;;6.68;;
29430;SDS011;16404;49.902;10.074;2024-03-17T11:37:39;11.77;;;6.72;;
29430;SDS011;16404;49.902;10.074;2024-03-17T11:40:25;8.00;;;6.20;;
29430;SDS011;16404;49.902;10.074;2024-03-17T11:43:13;8.65;;;6.63;;
29430;SDS011;16404;49.902;10.074;2024-03-17T11:46:00;8.75;;;6.53;;
29430;SDS011;16404;49.902;10.074;2024-03-17T11:48:45;8.20;;;6.15;;
29430;SDS011;16404;49.902;10.074;2024-03-17T11:51:29;7.85;;;6.15;;
29430;SDS011;16404;49.902;10.074;2024-03-17T11:54:17;7.63;;;5.90;;
29430;SDS011;16404;49.902;10.074;2024-03-17T11:57:11;9.85;;;7.13;;
29430;SDS011;16404;49.902;10.074;2024-03-17T11:59:56;9.68;;;6.90;;
29430;SDS011;16404;49.902;10.074;2024-03-17T12:02:41;9.35;;;6.90;;
29430;SDS011;16404;49.902;10.074;2024-03-17T12:05:26;7.78;;;6.45;;
29430;SDS011;16404;49.902;10.074;2024-03-17T12:08:20;9.75;;;6.45;;
29430;SDS011;16404;49.902;10.074;2024-03-17T12:11:14;9.23;;;7.18;;
29430;SDS011;16404;49.902;10.074;2024-03-17T12:14:17;11.25;;;6.95;;
29430;SDS011;16404;49.902;10.074;2024-03-17T12:17:04;11.23;;;7.20;;
29430;SDS011;16404;49.902;10.074;2024-03-17T12:19:53;12.05;;;7.10;;
29430;SDS011;16404;49.902;10.074;2024-03-17T12:22:39;10.77;;;6.63;;
29430;SDS011;16404;49.902;10.074;2024-03-17T12:25:25;11.25;;;6.90;;
29430;SDS011;16404;49.902;10.074;2024-03-17T12:28:13;12.32;;;7.38;;
29430;SDS011;16404;49.902;10.074;2024-03-17T12:31:00;11.65;;;7.38;;
29430;SDS011;16404;49.902;10.074;2024-03-17T12:33:45;13.15;;;7.35;;
29430;SDS011;16404;49.902;10.074;2024-03-17T12:36:30;10.20;;;6.80;;
29430;SDS011;16404;49.902;10.074;2024-03-17T12:39:24;8.73;;;7.00;;
29430;SDS011;16404;49.902;10.074;2024-03-17T12:42:15;9.77;;;6.90;;
29430;SDS011;16404;49.902;10.074;2024-03-17T12:45:01;12.07;;;7.57;;
29430;SDS011;16404;49.902;10.074;2024-03-17T12:47:46;9.77;;;7.57;;
29430;SDS011;16404;49.902;10.074;2024-03-17T12:50:33;11.70;;;6.90;;
29430;SDS011;16404;49.902;10.074;2024-03-17T12:53:17;9.90;;;6.88;;
29430;SDS011;16404;49.902;10.074;2024-03-17T12:56:02;9.27;;;7.13;;
29430;SDS011;16404;49.902;10.074;2024-03-17T12:59:07;10.90;;;7.53;;
29430;SDS011;16404;49.902;10.074;2024-03-17T13:02:26;10.15;;;7.25;;
29430;SDS011;16404;49.902;10.074;2024-03-17T13:08:02;9.73;;;7.32;;
29430;SDS011;16404;49.902;10.074;2024-03-17T13:10:47;10.60;;;7.60;;
29430;SDS011;16404;49.902;10.074;2024-03-17T13:13:32;10.63;;;7.00;;
29430;SDS011;16404;49.902;10.074;2024-03-17T13:16:16;10.75;;;7.35;;
29430;SDS011;16404;49.902;10.074;2024-03-17T13:19:01;9.07;;;6.93;;
29430;SDS011;16404;49.902;10.074;2024-03-17T13:21:46;11.68;;;7.00;;
29430;SDS011;16404;49.902;10.074;2024-03-17T13:24:30;10.30;;;6.95;;
29430;SDS011;16404;49.902;10.074;2024-03-17T13:27:15;9.85;;;7.18;;
29430;SDS011;16404;49.902;10.074;2024-03-17T13:30:00;12.48;;;7.35;;
29430;SDS011;16404;49.902;10.074;2024-03-17T13:32:44;9.70;;;6.97;;
29430;SDS011;16404;49.902;10.074;2024-03-17T13:35:30;13.32;;;7.50;;
29430;SDS011;16404;49.902;10.074;2024-03-17T13:38:15;10.57;;;7.03;;
29430;SDS011;16404;49.902;10.074;2024-03-17T13:40:59;8.90;;;6.82;;
29430;SDS011;16404;49.902;10.074;2024-03-17T13:43:44;12.93;;;7.63;;
29430;SDS011;16404;49.902;10.074;2024-03-17T13:46:28;12.88;;;7.32;;
29430;SDS011;16404;49.902;10.074;2024-03-17T13:49:13;10.20;;;7.85;;
29430;SDS011;16404;49.902;10.074;2024-03-17T13:51:57;11.10;;;7.60;;
29430;SDS011;16404;49.902;10.074;2024-03-17T13:54:42;10.05;;;7.30;;
29430;SDS011;16404;49.902;10.074;2024-03-17T13:57:27;11.80;;;7.43;;
29430;SDS011;16404;49.902;10.074;2024-03-17T14:00:11;8.73;;;6.70;;
29430;SDS011;16404;49.902;10.074;2024-03-17T14:03:00;13.63;;;7.43;;
29430;SDS011;16404;49.902;10.074;2024-03-17T14:05:44;10.40;;;7.03;;
29430;SDS011;16404;49.902;10.074;2024-03-17T14:08:29;10.52;;;7.35;;
29430;SDS011;16404;49.902;10.074;2024-03-17T14:11:15;14.20;;;7.45;;
29430;SDS011;16404;49.902;10.074;2024-03-17T14:14:00;10.63;;;7.30;;
29430;SDS011;16404;49.902;10.074;2024-03-17T14:16:44;8.75;;;7.00;;
29430;SDS011;16404;49.902;10.074;2024-03-17T14:19:29;9.07;;;6.35;;
29430;SDS011;16404;49.902;10.074;2024-03-17T14:24:59;12.13;;;6.30;;
29430;SDS011;16404;49.902;10.074;2024-03-17T14:27:44;9.05;;;6.68;;
29430;SDS011;16404;49.902;10.074;2024-03-17T14:33:13;9.57;;;6.43;;
29430;SDS011;16404;49.902;10.074;2024-03-17T14:35:58;9.13;;;6.00;;
29430;SDS011;16404;49.902;10.074;2024-03-17T14:38:43;7.70;;;6.05;;
29430;SDS011;16404;49.902;10.074;2024-03-17T14:41:28;6.28;;;5.68;;
29430;SDS011;16404;49.902;10.074;2024-03-17T14:44:13;7.88;;;5.90;;
29430;SDS011;16404;49.902;10.074;2024-03-17T14:46:58;9.32;;;5.38;;
29430;SDS011;16404;49.902;10.074;2024-03-17T14:49:43;7.35;;;5.32;;
29430;SDS011;16404;49.902;10.074;2024-03-17T14:52:29;10.02;;;6.15;;
29430;SDS011;16404;49.902;10.074;2024-03-17T14:55:13;8.52;;;5.78;;
29430;SDS011;16404;49.902;10.074;2024-03-17T14:58:00;9.50;;;5.53;;
29430;SDS011;16404;49.902;10.074;2024-03-17T15:00:46;11.23;;;5.93;;
29430;SDS011;16404;49.902;10.074;2024-03-17T15:03:30;6.32;;;5.32;;
29430;SDS011;16404;49.902;10.074;2024-03-17T15:06:15;6.65;;;5.57;;
29430;SDS011;16404;49.902;10.074;2024-03-17T15:09:02;10.68;;;6.03;;
29430;SDS011;16404;49.902;10.074;2024-03-17T15:11:49;8.05;;;4.63;;
29430;SDS011;16404;49.902;10.074;2024-03-17T15:17:21;7.00;;;5.20;;
29430;SDS011;16404;49.902;10.074;2024-03-17T15:20:06;6.97;;;5.15;;
29430;SDS011;16404;49.902;10.074;2024-03-17T15:23:05;8.65;;;6.10;;
29430;SDS011;16404;49.902;10.074;2024-03-17T15:25:49;10.48;;;6.93;;
29430;SDS011;16404;49.902;10.074;2024-03-17T15:28:43;10.13;;;5.22;;
29430;SDS011;16404;49.902;10.074;2024-03-17T15:31:29;7.83;;;5.57;;
29430;SDS011;16404;49.902;10.074;2024-03-17T15:34:14;12.32;;;6.43;;
29430;SDS011;16404;49.902;10.074;2024-03-17T15:36:59;8.27;;;5.45;;
29430;SDS011;16404;49.902;10.074;2024-03-17T15:39:43;9.85;;;6.40;;
29430;SDS011;16404;49.902;10.074;2024-03-17T15:42:28;8.27;;;5.90;;
29430;SDS011;16404;49.902;10.074;2024-03-17T15:45:13;9.02;;;5.72;;
29430;SDS011;16404;49.902;10.074;2024-03-17T15:50:42;10.82;;;5.72;;
29430;SDS011;16404;49.902;10.074;2024-03-17T15:53:27;8.15;;;5.55;;
29430;SDS011;16404;49.902;10.074;2024-03-17T15:56:12;7.40;;;5.57;;
29430;SDS011;16404;49.902;10.074;2024-03-17T15:58:56;9.05;;;5.80;;
29430;SDS011;16404;49.902;10.074;2024-03-17T16:01:41;8.13;;;5.68;;
29430;SDS011;16404;49.902;10.074;2024-03-17T16:04:25;8.10;;;5.68;;
29430;SDS011;16404;49.902;10.074;2024-03-17T16:07:10;9.60;;;6.22;;
29430;SDS011;16404;49.902;10.074;2024-03-17T16:09:55;8.25;;;5.32;;
29430;SDS011;16404;49.902;10.074;2024-03-17T16:12:40;9.68;;;5.65;;
29430;SDS011;16404;49.902;10.074;2024-03-17T16:15:24;8.02;;;5.60;;
29430;SDS011;16404;49.902;10.074;2024-03-17T16:18:09;7.25;;;5.75;;
29430;SDS011;16404;49.902;10.074;2024-03-17T16:20:59;9.15;;;6.13;;
29430;SDS011;16404;49.902;10.074;2024-03-17T16:23:52;7.65;;;5.25;;
29430;SDS011;16404;49.902;10.074;2024-03-17T16:26:45;9.73;;;5.65;;
29430;SDS011;16404;49.902;10.074;2024-03-17T16:29:31;20.25;;;6.20;;
29430;SDS011;16404;49.902;10.074;2024-03-17T16:32:16;10.10;;;5.95;;
29430;SDS011;16404;49.902;10.074;2024-03-17T16:35:02;10.20;;;6.07;;
29430;SDS011;16404;49.902;10.074;2024-03-17T16:37:47;7.25;;;5.40;;
29430;SDS011;16404;49.902;10.074;2024-03-17T16:40:31;8.93;;;6.00;;
29430;SDS011;16404;49.902;10.074;2024-03-17T16:43:24;10.75;;;5.57;;
29430;SDS011;16404;49.902;10.074;2024-03-17T16:49:30;10.68;;;5.97;;
29430;SDS011;16404;49.902;10.074;2024-03-17T16:52:19;9.02;;;6.45;;
29430;SDS011;16404;49.902;10.074;2024-03-17T16:55:06;8.10;;;6.47;;
29430;SDS011;16404;49.902;10.074;2024-03-17T16:57:52;9.43;;;6.38;;
29430;SDS011;16404;49.902;10.074;2024-03-17T17:00:37;11.05;;;6.40;;
29430;SDS011;16404;49.902;10.074;2024-03-17T17:03:22;11.38;;;6.32;;
29430;SDS011;16404;49.902;10.074;2024-03-17T17:06:07;10.57;;;6.22;;
29430;SDS011;16404;49.902;10.074;2024-03-17T17:08:51;8.98;;;5.85;;
29430;SDS011;16404;49.902;10.074;2024-03-17T17:11:36;8.88;;;6.28;;
29430;SDS011;16404;49.902;10.074;2024-03-17T17:14:21;11.73;;;6.60;;
29430;SDS011;16404;49.902;10.074;2024-03-17T17:17:06;8.23;;;5.63;;
29430;SDS011;16404;49.902;10.074;2024-03-17T17:19:53;10.18;;;6.32;;